createdAt,value
2018-10-16T00:00:13.598Z,99.90
2018-10-16T00:02:42.387Z,99.90
2018-10-16T00:05:10.871Z,99.90
2018-10-16T00:07:39.421Z,99.90
2018-10-16T00:10:08.804Z,99.90
2018-10-16T00:12:37.322Z,99.90
2018-10-16T00:15:07.172Z,99.90
2018-10-16T00:17:35.735Z,99.90
2018-10-16T00:20:05.638Z,99.90
2018-10-16T00:22:34.072Z,99.90
2018-10-16T00:25:02.475Z,99.90
2018-10-16T00:27:30.873Z,99.90
2018-10-16T00:29:59.289Z,99.90
2018-10-16T00:32:27.726Z,99.90
2018-10-16T00:34:56.167Z,99.90
2018-10-16T00:37:24.721Z,99.90
2018-10-16T00:39:53.151Z,99.90
2018-10-16T00:42:21.710Z,99.90
2018-10-16T00:44:50.140Z,99.90
2018-10-16T00:47:18.644Z,99.90
2018-10-16T00:49:47.332Z,99.90
2018-10-16T00:52:15.850Z,99.90
2018-10-16T00:54:44.446Z,99.90
2018-10-16T00:57:12.786Z,99.90
2018-10-16T00:59:41.269Z,99.90
2018-10-16T01:02:09.666Z,99.90
2018-10-16T01:04:38.413Z,99.90
2018-10-16T01:07:07.361Z,99.90
2018-10-16T01:09:37.008Z,99.90
2018-10-16T01:12:05.543Z,99.90
2018-10-16T01:14:34.011Z,99.90
2018-10-16T01:17:02.462Z,99.90
2018-10-16T01:19:31.012Z,99.90
2018-10-16T01:21:59.589Z,99.90
2018-10-16T01:24:28.122Z,99.90
2018-10-16T01:26:56.577Z,99.90
2018-10-16T01:29:25.079Z,99.90
2018-10-16T01:31:53.507Z,99.90
2018-10-16T01:34:21.931Z,99.90
2018-10-16T01:36:50.410Z,99.90
2018-10-16T01:39:18.820Z,99.90
2018-10-16T01:41:47.255Z,99.90
2018-10-16T01:44:15.690Z,99.90
2018-10-16T01:46:44.219Z,99.90
2018-10-16T01:49:12.622Z,99.90
2018-10-16T01:51:41.110Z,99.90
2018-10-16T01:54:09.543Z,99.90
2018-10-16T01:56:38.004Z,99.90
2018-10-16T01:59:06.508Z,99.90
2018-10-16T02:01:35.022Z,99.90
2018-10-16T02:04:03.549Z,99.90
2018-10-16T02:06:32.006Z,99.90
2018-10-16T02:09:00.482Z,99.90
2018-10-16T02:11:28.879Z,99.90
2018-10-16T02:13:57.394Z,99.90
2018-10-16T02:16:25.884Z,99.90
2018-10-16T02:18:54.502Z,99.90
2018-10-16T02:21:23.459Z,99.90
2018-10-16T02:23:52.141Z,99.90
2018-10-16T02:26:20.873Z,99.90
2018-10-16T02:28:49.524Z,99.90
2018-10-16T02:31:18.063Z,99.90
2018-10-16T02:33:46.659Z,99.90
2018-10-16T02:36:15.269Z,99.90
2018-10-16T02:38:43.803Z,99.90
2018-10-16T02:41:12.324Z,99.90
2018-10-16T02:43:40.892Z,99.90
2018-10-16T02:46:09.485Z,99.90
2018-10-16T02:48:38.101Z,99.90
2018-10-16T02:51:06.909Z,99.90
2018-10-16T02:53:35.349Z,99.90
2018-10-16T02:56:04.073Z,99.90
2018-10-16T02:58:32.580Z,99.90
2018-10-16T03:01:01.267Z,99.90
2018-10-16T03:03:36.664Z,99.90
2018-10-16T03:06:05.479Z,99.90
2018-10-16T03:08:33.893Z,99.90
2018-10-16T03:11:02.681Z,99.90
2018-10-16T03:13:31.111Z,99.90
2018-10-16T03:15:59.603Z,99.90
2018-10-16T03:18:28.078Z,99.90
2018-10-16T03:20:56.667Z,99.90
2018-10-16T03:23:25.567Z,99.90
2018-10-16T03:25:54.112Z,99.90
2018-10-16T03:28:22.604Z,99.90
2018-10-16T03:30:51.201Z,99.90
2018-10-16T03:33:19.748Z,99.90
2018-10-16T03:35:48.209Z,99.90
2018-10-16T03:38:16.643Z,99.90
2018-10-16T03:40:45.099Z,99.90
2018-10-16T03:43:13.612Z,99.90
2018-10-16T03:45:42.046Z,99.90
2018-10-16T03:48:10.500Z,99.90
2018-10-16T03:50:39.106Z,99.90
2018-10-16T03:53:07.619Z,99.90
2018-10-16T03:55:36.192Z,99.90
2018-10-16T03:58:05.213Z,99.90
2018-10-16T04:00:33.783Z,99.90
2018-10-16T04:03:02.171Z,99.90
2018-10-16T04:05:30.518Z,99.90
2018-10-16T04:07:58.914Z,99.90
2018-10-16T04:10:27.312Z,99.90
2018-10-16T04:12:55.717Z,99.90
2018-10-16T04:15:24.092Z,99.90
2018-10-16T04:17:52.665Z,99.90
2018-10-16T04:20:21.075Z,99.90
2018-10-16T04:22:49.507Z,99.90
2018-10-16T04:25:18.203Z,99.90
2018-10-16T04:27:46.580Z,99.90
2018-10-16T04:30:14.967Z,99.90
2018-10-16T04:32:43.380Z,99.90
2018-10-16T04:35:14.501Z,99.90
2018-10-16T04:37:43.365Z,99.90
2018-10-16T04:40:12.070Z,99.90
2018-10-16T04:42:41.775Z,99.90
2018-10-16T04:45:11.468Z,99.90
2018-10-16T04:47:40.487Z,99.90
2018-10-16T04:50:09.778Z,99.90
2018-10-16T04:52:38.313Z,99.90
2018-10-16T04:55:07.081Z,99.90
2018-10-16T04:57:35.598Z,99.90
2018-10-16T05:00:04.067Z,99.90
2018-10-16T05:02:32.446Z,99.90
2018-10-16T05:05:00.866Z,99.90
2018-10-16T05:07:29.284Z,99.90
2018-10-16T05:09:57.680Z,99.90
2018-10-16T05:12:26.014Z,99.90
2018-10-16T05:14:54.364Z,99.90
2018-10-16T05:17:22.939Z,99.90
2018-10-16T05:19:51.344Z,99.90
2018-10-16T05:22:19.728Z,99.90
2018-10-16T05:24:48.099Z,99.90
2018-10-16T05:27:16.493Z,99.90
2018-10-16T05:29:44.882Z,99.90
2018-10-16T05:32:13.367Z,99.90
2018-10-16T05:34:41.756Z,99.90
2018-10-16T05:37:10.331Z,99.90
2018-10-16T05:39:38.659Z,99.90
2018-10-16T05:42:07.100Z,99.90
2018-10-16T05:44:35.565Z,99.90
2018-10-16T05:47:04.001Z,99.90
2018-10-16T05:49:32.396Z,99.90
2018-10-16T05:52:00.776Z,99.90
2018-10-16T05:54:29.178Z,99.90
2018-10-16T05:56:57.524Z,99.90
2018-10-16T05:59:25.948Z,99.90
2018-10-16T06:01:54.326Z,99.90
2018-10-16T06:04:22.690Z,99.90
2018-10-16T06:06:51.109Z,99.90
2018-10-16T06:09:19.505Z,99.90
2018-10-16T06:11:47.879Z,99.90
2018-10-16T06:14:16.267Z,99.90
2018-10-16T06:16:44.712Z,99.90
2018-10-16T06:19:13.725Z,99.90
2018-10-16T06:21:42.098Z,99.90
2018-10-16T06:24:10.534Z,99.90
2018-10-16T06:26:38.923Z,99.90
2018-10-16T06:29:07.394Z,99.90
2018-10-16T06:31:35.831Z,99.90
2018-10-16T06:34:04.223Z,99.90
2018-10-16T06:36:32.687Z,99.90
2018-10-16T06:39:01.063Z,99.90
2018-10-16T06:41:29.685Z,99.90
2018-10-16T06:43:58.209Z,99.90
2018-10-16T06:46:27.032Z,99.90
2018-10-16T06:48:55.650Z,99.90
2018-10-16T06:51:23.841Z,99.90
2018-10-16T06:53:52.376Z,99.90
2018-10-16T06:56:20.740Z,99.90
2018-10-16T06:58:49.284Z,99.90
2018-10-16T07:01:17.665Z,99.90
2018-10-16T07:03:46.062Z,99.90
2018-10-16T07:06:15.331Z,99.90
2018-10-16T07:08:43.805Z,99.90
2018-10-16T07:11:12.198Z,99.90
2018-10-16T07:13:40.624Z,99.90
2018-10-16T07:16:09.023Z,99.90
2018-10-16T07:18:37.406Z,99.90
2018-10-16T07:21:05.817Z,99.90
2018-10-16T07:23:34.217Z,99.90
2018-10-16T07:26:02.499Z,99.90
2018-10-16T07:28:30.953Z,99.90
2018-10-16T07:30:59.437Z,99.90
2018-10-16T07:33:27.814Z,99.90
2018-10-16T07:35:56.154Z,99.90
2018-10-16T07:38:25.164Z,99.90
2018-10-16T07:40:53.686Z,99.90
2018-10-16T07:43:22.750Z,99.90
2018-10-16T07:45:51.108Z,99.90
2018-10-16T07:48:19.556Z,99.90
2018-10-16T07:50:47.835Z,99.90
2018-10-16T07:53:16.557Z,99.90
2018-10-16T07:55:44.918Z,99.90
2018-10-16T07:58:13.271Z,99.90
2018-10-16T08:00:42.391Z,99.90
2018-10-16T08:03:10.786Z,99.90
2018-10-16T08:05:39.278Z,99.90
2018-10-16T08:08:07.661Z,99.90
2018-10-16T08:10:36.638Z,99.90
2018-10-16T08:13:05.157Z,99.90
2018-10-16T08:15:33.714Z,99.90
2018-10-16T08:18:02.087Z,99.90
2018-10-16T08:20:30.451Z,99.90
2018-10-16T08:22:59.006Z,99.90
2018-10-16T08:25:27.983Z,99.90
2018-10-16T08:27:56.393Z,99.90
2018-10-16T08:30:24.825Z,99.90
2018-10-16T08:32:53.430Z,99.90
2018-10-16T08:35:21.844Z,99.90
2018-10-16T08:38:02.838Z,99.90
2018-10-16T08:40:31.316Z,99.90
2018-10-16T08:43:27.697Z,99.90
2018-10-16T08:46:07.725Z,99.90
2018-10-16T08:48:47.337Z,99.90
2018-10-16T08:51:28.690Z,99.90
2018-10-16T08:53:57.134Z,99.90
2018-10-16T08:56:25.559Z,99.90
2018-10-16T08:58:53.934Z,99.90
2018-10-16T09:01:22.298Z,99.90
2018-10-16T09:03:50.628Z,99.90
2018-10-16T09:06:19.007Z,97.60
2018-10-16T09:08:47.379Z,96.80
2018-10-16T09:11:15.787Z,96.00
2018-10-16T09:13:44.189Z,93.70
2018-10-16T09:16:12.543Z,90.40
2018-10-16T09:18:40.916Z,86.80
2018-10-16T09:21:09.315Z,85.50
2018-10-16T09:23:37.673Z,86.30
2018-10-16T09:26:06.731Z,87.20
2018-10-16T09:28:35.323Z,89.40
2018-10-16T09:31:03.756Z,89.30
2018-10-16T09:33:32.025Z,84.60
2018-10-16T09:36:00.382Z,82.10
2018-10-16T09:38:28.802Z,79.50
2018-10-16T09:40:57.218Z,78.00
2018-10-16T09:43:25.569Z,76.50
2018-10-16T09:45:53.953Z,71.50
2018-10-16T09:48:22.306Z,69.80
2018-10-16T09:50:50.668Z,71.40
2018-10-16T09:53:19.058Z,71.70
2018-10-16T09:55:47.402Z,68.80
2018-10-16T09:58:15.767Z,68.30
2018-10-16T10:00:49.830Z,67.80
2018-10-16T10:03:18.204Z,67.20
2018-10-16T10:05:46.577Z,69.60
2018-10-16T10:08:15.018Z,73.60
2018-10-16T10:10:43.370Z,77.40
2018-10-16T10:13:11.729Z,78.80
2018-10-16T10:15:40.244Z,79.30
2018-10-16T10:18:08.742Z,78.00
2018-10-16T10:20:37.244Z,76.10
2018-10-16T10:23:05.810Z,74.00
2018-10-16T10:25:34.198Z,71.10
2018-10-16T10:28:02.621Z,70.40
2018-10-16T10:30:30.982Z,70.60
2018-10-16T10:32:59.371Z,72.00
2018-10-16T10:35:27.809Z,71.40
2018-10-16T10:37:56.086Z,70.20
2018-10-16T10:40:25.060Z,69.40
2018-10-16T10:42:53.435Z,68.20
2018-10-16T10:45:21.848Z,68.00
2018-10-16T10:47:50.238Z,66.00
2018-10-16T10:50:18.710Z,66.10
2018-10-16T10:52:46.938Z,66.20
2018-10-16T10:55:15.306Z,65.60
2018-10-16T10:57:43.676Z,66.40
2018-10-16T11:00:13.522Z,67.50
2018-10-16T11:02:44.147Z,69.20
2018-10-16T11:05:12.514Z,70.00
2018-10-16T11:07:40.880Z,69.40
2018-10-16T11:10:11.095Z,71.50
2018-10-16T11:12:39.830Z,69.80
2018-10-16T11:15:08.527Z,68.30
2018-10-16T11:17:37.492Z,66.20
2018-10-16T11:20:06.761Z,63.80
2018-10-16T11:22:35.117Z,62.90
2018-10-16T11:25:03.492Z,62.40
2018-10-16T11:27:31.980Z,61.90
2018-10-16T11:30:00.439Z,62.00
2018-10-16T11:32:28.820Z,61.70
2018-10-16T11:34:57.168Z,60.50
2018-10-16T11:37:25.538Z,60.90
2018-10-16T11:39:53.889Z,60.10
2018-10-16T11:42:22.271Z,59.80
2018-10-16T11:44:50.702Z,59.60
2018-10-16T11:47:19.504Z,59.60
2018-10-16T11:49:47.893Z,59.90
2018-10-16T11:52:16.322Z,58.50
2018-10-16T11:54:44.632Z,58.50
2018-10-16T11:57:12.952Z,58.10
2018-10-16T11:59:41.443Z,59.20
2018-10-16T12:02:09.869Z,58.90
2018-10-16T12:04:38.168Z,58.00
2018-10-16T12:07:06.670Z,56.60
2018-10-16T12:09:34.915Z,57.00
2018-10-16T12:12:03.337Z,56.90
2018-10-16T12:14:31.717Z,56.40
2018-10-16T12:18:03.162Z,56.20
2018-10-16T12:20:35.244Z,55.50
2018-10-16T12:23:04.774Z,55.00
2018-10-16T12:25:33.152Z,54.70
2018-10-16T12:28:01.621Z,56.10
2018-10-16T12:30:29.957Z,56.50
2018-10-16T12:32:58.331Z,56.00
2018-10-16T12:35:26.700Z,55.00
2018-10-16T12:37:55.096Z,55.20
2018-10-16T12:40:23.482Z,55.20
2018-10-16T12:42:51.923Z,56.10
2018-10-16T12:45:20.200Z,55.90
2018-10-16T12:47:48.605Z,56.00
2018-10-16T12:50:17.008Z,57.60
2018-10-16T12:52:45.326Z,57.90
2018-10-16T12:55:13.689Z,58.40
2018-10-16T12:57:42.105Z,58.00
2018-10-16T13:00:11.146Z,58.00
2018-10-16T13:02:39.451Z,57.80
2018-10-16T13:05:07.910Z,57.60
2018-10-16T13:07:38.167Z,57.30
2018-10-16T13:10:15.504Z,57.10
2018-10-16T13:12:44.757Z,56.60
2018-10-16T13:15:13.900Z,56.20
2018-10-16T13:17:42.261Z,55.70
2018-10-16T13:20:12.252Z,56.20
2018-10-16T13:22:41.055Z,56.20
2018-10-16T13:25:11.778Z,56.30
2018-10-16T13:27:40.127Z,56.50
2018-10-16T13:30:10.449Z,56.50
2018-10-16T13:32:38.871Z,56.90
2018-10-16T13:35:09.538Z,57.20
2018-10-16T13:37:37.815Z,58.30
2018-10-16T13:40:07.201Z,57.70
2018-10-16T13:42:35.570Z,58.00
2018-10-16T13:45:04.612Z,57.80
2018-10-16T13:47:33.002Z,57.90
2018-10-16T13:50:01.573Z,58.10
2018-10-16T13:52:30.042Z,57.80
2018-10-16T13:54:58.427Z,57.70
2018-10-16T13:57:26.804Z,58.90
2018-10-16T13:59:55.148Z,58.90
2018-10-16T14:02:23.504Z,58.70
2018-10-16T14:04:52.012Z,59.80
2018-10-16T14:07:20.361Z,60.50
2018-10-16T14:09:48.727Z,60.90
2018-10-16T14:12:17.061Z,60.60
2018-10-16T14:14:45.413Z,60.10
2018-10-16T14:17:13.796Z,61.30
2018-10-16T14:19:42.224Z,62.00
2018-10-16T14:22:10.790Z,64.90
2018-10-16T14:24:39.150Z,66.10
2018-10-16T14:27:07.541Z,65.60
2018-10-16T14:29:35.976Z,65.20
2018-10-16T14:32:04.733Z,64.30
2018-10-16T14:34:33.165Z,63.80
2018-10-16T14:37:01.427Z,62.80
2018-10-16T14:39:29.771Z,63.40
2018-10-16T14:41:58.116Z,63.50
2018-10-16T14:44:26.470Z,61.90
2018-10-16T14:46:54.922Z,62.10
2018-10-16T14:49:23.702Z,61.70
2018-10-16T14:51:52.154Z,62.00
2018-10-16T14:54:20.583Z,62.30
2018-10-16T14:56:49.007Z,64.10
2018-10-16T14:59:17.354Z,63.60
2018-10-16T15:01:45.845Z,62.50
2018-10-16T15:04:14.292Z,62.40
2018-10-16T15:06:42.523Z,61.90
2018-10-16T15:09:11.328Z,61.90
2018-10-16T15:11:39.693Z,63.40
2018-10-16T15:14:08.096Z,64.00
2018-10-16T15:16:36.560Z,63.80
2018-10-16T15:19:05.004Z,64.50
2018-10-16T15:21:33.409Z,65.60
2018-10-16T15:24:01.821Z,66.60
2018-10-16T15:26:30.158Z,67.80
2018-10-16T15:28:58.516Z,69.30
2018-10-16T15:31:26.927Z,70.50
2018-10-16T15:33:55.304Z,70.90
2018-10-16T15:36:23.607Z,72.20
2018-10-16T15:38:52.033Z,73.70
2018-10-16T15:41:20.458Z,74.00
2018-10-16T15:43:48.788Z,75.50
2018-10-16T15:46:17.166Z,76.00
2018-10-16T15:48:45.530Z,76.60
2018-10-16T15:51:13.911Z,77.50
2018-10-16T15:53:42.335Z,78.20
2018-10-16T15:56:10.776Z,79.00
2018-10-16T15:58:39.162Z,79.80
2018-10-16T16:01:07.515Z,80.70
2018-10-16T16:03:35.940Z,81.30
2018-10-16T16:06:04.898Z,82.00
2018-10-16T16:08:33.193Z,82.60
2018-10-16T16:11:01.570Z,83.30
2018-10-16T16:13:29.940Z,83.80
2018-10-16T16:15:58.330Z,84.50
2018-10-16T16:18:26.757Z,85.10
2018-10-16T16:20:55.428Z,85.40
2018-10-16T16:23:23.822Z,85.40
2018-10-16T16:25:52.284Z,85.80
2018-10-16T16:28:20.625Z,86.40
2018-10-16T16:30:48.993Z,87.40
2018-10-16T16:33:17.291Z,87.20
2018-10-16T16:35:45.771Z,87.50
2018-10-16T16:38:14.148Z,88.20
2018-10-16T16:40:42.524Z,88.50
2018-10-16T16:43:11.155Z,89.10
2018-10-16T16:45:39.592Z,89.70
2018-10-16T16:48:07.920Z,90.30
2018-10-16T16:50:36.982Z,90.60
2018-10-16T16:53:05.399Z,90.90
2018-10-16T16:55:33.707Z,91.30
2018-10-16T16:58:02.104Z,91.60
2018-10-16T17:00:30.506Z,92.00
2018-10-16T17:02:59.019Z,92.30
2018-10-16T17:05:27.366Z,92.60
2018-10-16T17:07:55.777Z,92.90
2018-10-16T17:10:24.108Z,93.40
2018-10-16T17:12:52.484Z,93.60
2018-10-16T17:15:20.858Z,93.90
2018-10-16T17:17:49.292Z,94.50
2018-10-16T17:20:17.657Z,94.90
2018-10-16T17:22:46.037Z,95.10
2018-10-16T17:25:15.252Z,95.70
2018-10-16T17:27:44.518Z,96.10
2018-10-16T17:30:14.802Z,96.60
2018-10-16T17:32:43.815Z,96.90
2018-10-16T17:35:12.871Z,97.00
2018-10-16T17:37:41.727Z,97.00
2018-10-16T17:40:12.454Z,97.30
2018-10-16T17:42:41.513Z,97.40
2018-10-16T17:45:11.405Z,97.90
2018-10-16T17:47:39.767Z,98.20
2018-10-16T17:50:10.337Z,98.80
2018-10-16T17:52:38.883Z,98.80
2018-10-16T17:55:07.686Z,99.30
2018-10-16T17:57:36.384Z,99.20
2018-10-16T18:00:05.572Z,99.30
2018-10-16T18:02:34.025Z,99.50
2018-10-16T18:05:02.471Z,99.70
2018-10-16T18:07:30.850Z,99.80
2018-10-16T18:10:00.270Z,99.90
2018-10-16T18:12:28.646Z,99.90
2018-10-16T18:14:57.166Z,99.90
2018-10-16T18:17:25.741Z,99.90
2018-10-16T18:19:54.148Z,99.90
2018-10-16T18:22:22.525Z,99.90
2018-10-16T18:24:50.913Z,99.90
2018-10-16T18:27:19.289Z,99.90
2018-10-16T18:29:47.715Z,99.90
2018-10-16T18:32:16.064Z,99.90
2018-10-16T18:34:44.479Z,99.90
2018-10-16T18:37:12.861Z,99.90
2018-10-16T18:39:41.372Z,99.90
2018-10-16T18:42:09.614Z,99.90
2018-10-16T18:44:38.358Z,99.90
2018-10-16T18:47:06.744Z,99.90
2018-10-16T18:49:35.093Z,99.90
2018-10-16T18:52:03.539Z,99.90
2018-10-16T18:54:31.943Z,99.90
2018-10-16T18:57:00.578Z,99.90
2018-10-16T18:59:28.919Z,99.90
2018-10-16T19:01:57.290Z,99.90
2018-10-16T19:04:25.634Z,99.90
2018-10-16T19:06:54.147Z,99.90
2018-10-16T19:09:22.567Z,99.90
2018-10-16T19:11:50.961Z,99.90
2018-10-16T19:14:20.116Z,99.90
2018-10-16T19:16:48.513Z,99.90
2018-10-16T19:19:16.890Z,99.90
2018-10-16T19:21:45.283Z,99.90
2018-10-16T19:24:13.699Z,99.90
2018-10-16T19:26:42.031Z,99.90
2018-10-16T19:29:10.412Z,99.90
2018-10-16T19:31:38.819Z,99.90
2018-10-16T19:34:07.272Z,99.90
2018-10-16T19:36:35.690Z,99.90
2018-10-16T19:39:05.660Z,99.90
2018-10-16T19:41:34.002Z,99.90
2018-10-16T19:44:02.503Z,99.90
2018-10-16T19:46:30.830Z,99.90
2018-10-16T19:48:59.819Z,99.90
2018-10-16T19:51:28.226Z,99.90
2018-10-16T19:53:56.807Z,99.90
2018-10-16T19:56:25.147Z,99.90
2018-10-16T19:58:53.528Z,99.90
2018-10-16T20:01:21.911Z,99.90
2018-10-16T20:03:50.352Z,99.90
2018-10-16T20:06:20.083Z,99.90
2018-10-16T20:08:49.145Z,99.90
2018-10-16T20:11:18.123Z,99.90
2018-10-16T20:13:47.000Z,99.90
2018-10-16T20:16:15.904Z,99.90
2018-10-16T20:18:44.641Z,99.90
2018-10-16T20:21:13.602Z,99.90
2018-10-16T20:23:42.423Z,99.90
2018-10-16T20:26:11.391Z,99.90
2018-10-16T20:28:40.090Z,99.90
2018-10-16T20:31:09.286Z,99.90
2018-10-16T20:33:38.056Z,99.90
2018-10-16T20:36:06.441Z,99.90
2018-10-16T20:38:34.827Z,99.90
2018-10-16T20:41:03.404Z,99.90
2018-10-16T20:43:31.845Z,99.90
2018-10-16T20:46:00.238Z,99.90
2018-10-16T20:48:28.629Z,99.90
2018-10-16T20:50:57.135Z,99.90
2018-10-16T20:53:25.503Z,99.90
2018-10-16T20:55:53.865Z,99.90
2018-10-16T20:58:22.238Z,99.90
2018-10-16T21:00:51.169Z,99.90
2018-10-16T21:03:19.565Z,99.90
2018-10-16T21:05:48.096Z,99.90
2018-10-16T21:08:16.333Z,99.90
2018-10-16T21:10:44.768Z,99.90
2018-10-16T21:13:13.156Z,99.90
2018-10-16T21:15:41.570Z,99.90
2018-10-16T21:18:09.991Z,99.90
2018-10-16T21:20:38.386Z,99.90
2018-10-16T21:23:06.903Z,99.90
2018-10-16T21:25:35.242Z,99.90
2018-10-16T21:28:03.701Z,99.90
2018-10-16T21:30:32.098Z,99.90
2018-10-16T21:33:00.445Z,99.90
2018-10-16T21:35:28.847Z,99.90
2018-10-16T21:37:57.328Z,99.90
2018-10-16T21:40:25.731Z,99.90
2018-10-16T21:42:54.163Z,99.90
2018-10-16T21:45:22.525Z,99.90
2018-10-16T21:47:50.928Z,99.90
2018-10-16T21:50:19.316Z,99.90
2018-10-16T21:52:47.657Z,99.90
2018-10-16T21:55:16.169Z,99.90
2018-10-16T21:57:44.419Z,99.90
2018-10-16T22:00:18.327Z,99.90
2018-10-16T22:02:46.813Z,99.90
2018-10-16T22:05:20.460Z,99.90
2018-10-16T22:07:52.566Z,99.90
2018-10-16T22:10:21.790Z,99.90
2018-10-16T22:12:50.644Z,99.90
2018-10-16T22:15:20.241Z,99.90
2018-10-16T22:17:48.806Z,99.90
2018-10-16T22:20:17.473Z,99.90
2018-10-16T22:22:46.674Z,99.90
2018-10-16T22:25:15.830Z,99.90
2018-10-16T22:27:44.238Z,99.90
2018-10-16T22:30:12.641Z,99.90
2018-10-16T22:32:41.017Z,99.90
2018-10-16T22:35:10.828Z,99.90
2018-10-16T22:37:39.226Z,99.90
2018-10-16T22:40:08.455Z,99.90
2018-10-16T22:42:37.658Z,99.90
2018-10-16T22:45:07.516Z,99.90
2018-10-16T22:47:36.323Z,99.90
2018-10-16T22:50:06.999Z,99.90
2018-10-16T22:52:35.362Z,99.90
2018-10-16T22:55:04.177Z,99.90
2018-10-16T22:57:32.676Z,99.90
2018-10-16T23:00:01.083Z,99.90
2018-10-16T23:02:29.444Z,99.90
2018-10-16T23:04:57.861Z,99.90
2018-10-16T23:07:26.244Z,99.90
2018-10-16T23:09:54.609Z,99.90
2018-10-16T23:12:22.958Z,99.90
2018-10-16T23:14:51.425Z,99.90
2018-10-16T23:17:19.783Z,99.90
2018-10-16T23:19:48.150Z,99.90
2018-10-16T23:22:16.518Z,99.90
2018-10-16T23:24:44.884Z,99.90
2018-10-16T23:27:13.262Z,99.90
2018-10-16T23:29:41.635Z,99.90
2018-10-16T23:32:09.987Z,99.90
2018-10-16T23:34:39.011Z,99.90
2018-10-16T23:37:07.460Z,99.90
2018-10-16T23:39:35.897Z,99.90
2018-10-16T23:42:04.476Z,99.90
2018-10-16T23:44:32.855Z,99.90
2018-10-16T23:47:01.232Z,99.90
2018-10-16T23:49:29.595Z,99.90
2018-10-16T23:51:57.961Z,99.90
2018-10-16T23:54:26.347Z,99.90
2018-10-16T23:56:54.722Z,99.90
2018-10-16T23:59:23.106Z,99.90
